Station: Maningrida Airport  

  Atmospheric Gas Attenuation - ITU Rec 676-11   ----------------- dB/100km -----------------
Date Time Temp RH % AH g/m3 Dew Point Wind Direction Speed kph Gust kph Barometer mB Rainfall Since 9am 24GHz 47GHz 76GHz 122GHz 134GHz 241GHz
01/09 03:00 22.1 76 14.83 17.7 7 9 1016.6 0 32.3 33.8 60.9 160.9 170.5 591.5
01/09 02:50 22.2 76 14.92 17.8 7 9 1016.5 0 32.5 33.9 61.3 161.7 171.6 595.2
01/09 02:40 22.3 75 14.81 17.7 7 9 1016.5 0 32.3 33.7 60.7 160.2 169.8 588.9
01/09 02:30 22.4 75 14.89 17.8 6 7 1016.7 0 32.4 33.8 61.0 161.0 170.7 592.3
01/09 02:20 22.7 74 14.95 17.8 7 9 1016.7 0 32.5 33.8 61.0 161.0 170.9 592.9
01/09 02:10 22.9 73 14.92 17.8 7 9 1016.9 0 32.5 33.6 60.7 160.3 170.1 590.0
01/09 02:00 23 71 14.59 17.5 7 9 1017.1 0 31.8 33.0 59.2 156.3 165.2 573.0
01/09 01:50 23.5 70 14.8 17.7 9 13 1017.1 0 32.2 33.2 59.7 157.7 167.1 579.6
01/09 01:40 23.7 69 14.76 17.7 9 13 1017.1 0 32.1 33.1 59.4 156.9 166.1 576.1
01/09 01:30 24 67 14.58 17.5 11 17 1017.3 0 31.7 32.6 58.4 154.2 162.9 565.2
01/09 01:20 24.3 66 14.6 17.5 11 19 1017.3 0 31.7 32.6 58.3 153.9 162.6 564.0
01/09 01:10 24.5 66 14.77 17.7 17 24 1017.4 0 32.0 32.8 58.9 155.4 164.5 570.8
01/09 01:00 24.5 65 14.55 17.5 17 30 1017.4 0 31.6 32.4 57.9 152.9 161.5 560.2
01/09 00:50 24.6 65 14.63 17.6 19 32 1017.4 0 31.7 32.5 58.2 153.6 162.4 563.3
01/09 00:40 24.6 65 14.63 17.6 17 24 1017.4 0 31.7 32.5 58.2 153.6 162.4 563.3
01/09 00:30 24.8 65 14.8 17.8 17 24 1017.6 0 32.1 32.7 58.8 155.2 164.3 570.2
01/09 00:20 24.9 66 15.11 18.1 17 24 1017.5 0 32.7 33.2 60.0 158.5 168.4 584.4
01/09 00:10 25 67 15.42 18.4 19 28 1017.5 0 33.4 33.7 61.3 161.8 172.5 598.8
01/09 00:00 25 68 15.65 18.7 19 24 1017.6 0 33.8 34.1 62.3 164.4 175.8 610.2
31/08 23:50 25.2 68 15.83 18.9 19 26 1017.5 0 34.2 34.4 62.9 166.1 177.9 617.4
31/08 23:40 25.3 68 15.92 19 17 26 1017.4 0 34.4 34.5 63.2 166.9 178.9 621.0
31/08 23:30 25.5 68 16.1 19.2 19 26 1017.5 0 34.7 34.7 63.8 168.6 181.0 628.4
31/08 23:20 25.5 68 16.1 19.2 20 28 1017.3 0 34.7 34.7 63.8 168.5 181.0 628.3
31/08 23:10 25.6 69 16.43 19.5 20 32 1017.1 0 35.4 35.2 65.1 172.1 185.4 643.8
31/08 23:00 25.7 71 17 20 19 30 1017.2 0 36.6 36.2 67.6 178.6 193.4 671.7
31/08 22:50 25.7 72 17.24 20.3 20 30 1017.2 0 37.1 36.6 68.7 181.5 196.9 683.9
31/08 22:40 25.8 72 17.33 20.4 20 30 1017.1 0 37.3 36.7 69.0 182.3 198.0 687.5
31/08 22:30 25.8 72 17.33 20.4 22 32 1017.2 0 37.3 36.8 69.0 182.3 198.0 687.6
31/08 22:20 25.8 73 17.57 20.6 19 28 1017.1 0 37.8 37.2 70.0 185.2 201.5 699.8
31/08 22:10 25.8 74 17.82 20.8 20 33 1017 0 38.4 37.6 71.2 188.2 205.2 712.6
31/08 22:00 25.8 75 18.06 21 20 30 1017.1 0 38.9 38.1 72.3 191.1 208.8 725.1
31/08 21:50 25.7 75 17.96 20.9 17 30 1017.1 0 38.7 37.9 71.9 190.1 207.5 720.9
31/08 21:40 25.8 74 17.82 20.8 17 26 1017 0 38.4 37.6 71.2 188.2 205.2 712.6
31/08 21:30 25.8 74 17.82 20.8 19 30 1017.1 0 38.4 37.6 71.2 188.2 205.2 712.7
31/08 21:20 25.9 72 17.43 20.5 19 32 1017 0 37.5 36.9 69.3 183.2 199.1 691.7
31/08 21:10 26 71 17.29 20.3 20 33 1016.9 0 37.2 36.6 68.6 181.3 196.8 683.6
31/08 21:00 26 72 17.53 20.6 20 30 1016.9 0 37.7 37.0 69.7 184.2 200.3 695.8
31/08 20:50 25.9 72 17.43 20.5 19 28 1016.7 0 37.5 36.9 69.3 183.2 199.1 691.5
31/08 20:40 25.8 75 18.06 21 19 30 1016.5 0 38.9 38.1 72.2 191.0 208.7 724.8
31/08 20:30 25.8 75 18.06 21 17 28 1016.6 0 38.9 38.1 72.2 191.0 208.7 724.9
31/08 20:20 25.9 75 18.16 21.1 17 24 1016.3 0 39.1 38.2 72.6 191.9 209.9 728.9
31/08 20:10 25.9 75 18.16 21.1 19 32 1016.2 0 39.1 38.2 72.6 191.9 209.8 728.9
31/08 20:00 25.9 74 17.92 20.9 19 28 1016.2 0 38.6 37.7 71.5 189.0 206.3 716.5
31/08 19:50 25.8 72 17.33 20.4 17 26 1016 0 37.3 36.7 68.9 182.1 197.8 687.0
31/08 19:40 25.8 71 17.09 20.1 17 26 1015.8 0 36.8 36.3 67.8 179.2 194.3 674.7
31/08 19:30 25.8 69 16.61 19.7 15 26 1015.7 0 35.8 35.4 65.7 173.6 187.3 650.5
31/08 19:20 25.7 66 15.8 18.9 15 22 1015.4 0 34.1 34.0 62.2 164.4 176.0 611.0
31/08 19:10 25.8 65 15.65 18.7 15 24 1015.2 0 33.8 33.7 61.5 162.4 173.6 602.8
31/08 19:00 25.9 63 15.25 18.3 15 22 1015.2 0 32.9 33.0 59.7 157.7 167.9 582.7
31/08 18:50 26.2 59 14.53 17.6 13 20 1015 0 31.4 31.7 56.5 149.1 157.4 546.2
31/08 18:40 26.3 55 13.62 16.5 15 22 1014.9 0 29.5 30.1 52.7 139.1 145.1 503.3
31/08 18:30 26.5 54 13.52 16.4 11 19 1014.9 0 29.3 29.9 52.2 137.7 143.4 497.4
31/08 18:20 26.8 52 13.24 16.1 13 19 1014.7 0 28.6 29.3 50.9 134.2 139.2 482.8
31/08 18:10 27.1 50 12.94 15.8 13 20 1014.6 0 28.0 28.8 49.5 130.5 134.9 467.6
31/08 18:00 27.4 48 12.63 15.4 13 22 1014.6 0 27.3 28.2 48.1 126.9 130.4 452.2
31/08 17:50 27.7 48 12.84 15.7 17 24 1014.4 0 27.8 28.4 48.7 128.5 132.5 459.6
31/08 17:40 27.9 46 12.44 15.2 17 26 1014.3 0 26.9 27.7 47.1 124.1 127.2 441.0
31/08 17:30 28 48 13.05 16 20 32 1014.4 0 28.2 28.6 49.4 130.2 134.7 467.1
31/08 17:20 28.4 44 12.23 15 17 26 1014.2 0 26.4 27.3 46.0 121.3 123.8 429.3
31/08 17:10 29 39 11.2 13.6 17 24 1014.1 0 24.3 25.6 41.9 110.4 110.6 383.1
31/08 17:00 28.6 41 11.52 14.1 20 32 1014.2 0 24.9 26.1 43.3 114.0 115.0 398.3
31/08 16:50 28.9 42 12 14.7 20 35 1014 0 25.9 26.8 44.9 118.2 120.3 416.8
31/08 16:40 29.1 43 12.42 15.2 19 30 1014.1 0 26.8 27.3 46.3 122.1 125.0 433.6
31/08 16:30 29.3 45 13.14 16.1 19 32 1014.1 0 28.3 28.4 48.9 129.0 133.6 463.3
31/08 16:20 28.6 48 13.49 16.5 19 30 1014 0 29.0 29.1 50.7 133.7 139.1 482.8
31/08 16:10 29 51 14.65 17.8 20 33 1014.1 0 31.4 30.8 54.9 145.1 153.3 532.1
31/08 16:00 29 49 14.08 17.2 19 28 1014.3 0 30.2 29.9 52.7 139.1 145.9 506.6
31/08 15:50 29 51 14.65 17.8 19 30 1014.1 0 31.4 30.8 54.9 145.1 153.3 532.1
31/08 15:40 29.1 50 14.44 17.6 19 28 1014.2 0 31.0 30.5 54.0 142.7 150.4 522.0
31/08 15:30 29.1 52 15.02 18.2 22 32 1014.3 0 32.2 31.4 56.4 148.8 157.9 548.4
31/08 15:20 29 52 14.94 18.1 20 32 1014.3 0 32.0 31.3 56.1 148.2 157.1 545.4
31/08 15:10 29.3 52 15.18 18.4 20 32 1014.3 0 32.5 31.6 56.9 150.2 159.6 554.3
31/08 15:00 29.1 50 14.44 17.6 22 32 1014.4 0 31.0 30.5 54.1 142.7 150.4 522.1
31/08 14:50 29.1 51 14.73 17.9 20 32 1014.5 0 31.6 30.9 55.2 145.8 154.1 535.2
31/08 14:40 29.2 52 15.1 18.3 22 33 1014.6 0 32.4 31.5 56.6 149.5 158.8 551.5
31/08 14:30 29.6 52 15.43 18.7 22 33 1014.7 0 33.0 31.9 57.7 152.3 162.3 563.8
31/08 14:20 29.3 51 14.89 18.1 20 30 1014.8 0 31.9 31.1 55.7 147.1 155.9 541.3
31/08 14:10 29 52 14.94 18.1 24 32 1014.9 0 32.0 31.3 56.1 148.2 157.1 545.7
31/08 14:00 31.8 33 11.03 13.5 20 33 1015.1 0 23.7 24.6 40.0 105.2 105.0 363.7
31/08 13:50 31.2 35 11.32 13.9 22 35 1015.1 0 24.4 25.2 41.3 108.7 109.1 378.0
31/08 13:40 30.5 37 11.53 14.2 19 26 1015.2 0 24.9 25.7 42.4 111.6 112.5 389.8
31/08 13:30 31.1 33 10.62 12.9 17 35 1015.5 0 22.9 24.2 38.9 102.4 101.3 350.8
31/08 13:20 31.8 33 11.03 13.5 24 37 1015.7 0 23.7 24.6 40.0 105.3 105.0 363.9
31/08 13:10 31.7 33 10.97 13.5 20 35 1015.7 0 23.6 24.6 39.9 104.9 104.5 362.0
31/08 13:00 31.5 31 10.19 12.3 24 37 1016 0 22.0 23.5 37.3 98.1 96.1 332.5
31/08 12:50 31.2 32 10.35 12.5 20 35 1016.1 0 22.4 23.8 38.0 99.9 98.2 340.0
31/08 12:40 30.8 34 10.77 13.1 20 32 1016.2 0 23.3 24.5 39.6 104.2 103.4 358.2
31/08 12:30 31.1 33 10.62 12.9 22 33 1016.5 0 22.9 24.3 39.0 102.5 101.4 351.0
31/08 12:20 30.7 34 10.71 13 20 35 1016.6 0 23.1 24.5 39.5 103.8 102.9 356.4
31/08 12:10 31 35 11.2 13.7 22 33 1016.7 0 24.1 25.1 41.0 108.0 108.1 374.6
31/08 12:00 30.1 36 10.98 13.4 22 39 1017.1 0 23.7 25.0 40.7 107.2 106.8 369.9
31/08 11:50 30.6 36 11.28 13.8 22 32 1017.1 0 24.3 25.3 41.5 109.3 109.6 379.7
31/08 11:40 29.6 38 11.28 13.8 26 32 1017.2 0 24.4 25.6 42.1 110.7 111.0 384.5
31/08 11:30 29.5 37 10.92 13.3 26 39 1017.7 0 23.6 25.1 40.8 107.4 107.0 370.4
31/08 11:20 29.6 35 10.39 12.9 28 41 1017.6 0 22.5 24.4 38.9 102.4 100.8 348.7
31/08 11:10 29.4 36 10.57 12.8 22 43 1017.7 0 22.9 24.7 39.7 104.3 103.1 356.8
31/08 11:00 29.6 38 11.28 13.8 20 35 1018 0 24.4 25.6 42.1 110.7 111.1 384.7
31/08 10:50 28.9 39 11.14 13.6 26 37 1018 0 24.1 25.6 41.9 110.4 110.4 382.3
31/08 10:40 29.4 38 11.16 13.6 20 30 1018.2 0 24.1 25.5 41.8 109.9 110.0 380.8
31/08 10:30 28.5 41 11.46 14 17 26 1018.4 0 24.8 26.2 43.3 114.0 114.8 397.6

Last Refresh: 01-Sep-2026 03:07:07

Bureau of Meteorology